Página principal
METAR-TAF:

METAR-TAF

Aeroportos :

Aeroporto Internacional de Faro

Faro, Portugal

latitude: 37-01N, longitude: 007-58W, altura: 7 m

Observação actual do tempo

O boletim foi feito há 38 minutos, às 10:00 UTC
Vento 7 kt de oeste
Temperatura 13°C
Humidade 77%
Pressão 1030 hPa
Visibilidade 10 km ou mais
sem nuvens abaixo de 1500 metros e sem cumulonimbus

METAR: LPFR 061000Z 26007KT CAVOK 13/09 Q1030

Hora: 10:38 (10:38 UTC)

Previsão

O boletim foi feito há 5 horas e 38 minutos, às 05:00 UTC
Previsão válida de 06 às 06 UTC a 07 às 06 UTC
Vento 7 kt de noroeste
Visibilidade 10 km ou mais
Poucas nuvensa uma altura de 3500 ft
Temporariamente
de 06 às 15 UTC a 06 às 18 UTC
Vento 5 kt com direcção variável

TAF: LPFR 060500Z 0606/0706 31007KT 9999 FEW035 TEMPO 0615/0618 VRB05KT

Observações e previsões do tempo de mais de 4000 aeroportos (mensagens METAR e TAF).

As estações disponíveis são os pontos amarelos e vermelhos sobre o mapa.

Mova o rato sobre o mapa para ver o nome da estação.

Depois clique no ponto para visualizar as observações e previsões meteorológicas.

Para alterar o mapa : clique nos botões verdes com uma cruz preta para aumentar o zoom; no botão verde com uma pitada de zoom; ou nas setas verdes para mapas adjacentes.


METAR-TAF: